Time;durP1;ratioP1;P1;durP2;ratioP2;P2;SDS_P1;SDS_P2;PMS_P1;PMS_P2;Temp;Humidity;BMP_temperature;BMP_pressure;BME280_temperature;BME280_humidity;BME280_pressure;Samples;Min_cycle;Max_cycle;Signal;HPM_P1;HPM_P2
2022/05/11 00:01:13;;;;;;;9.43;5.03;;;;;;;14.11;47.64;98721.16;1751138;81;25666;-62
2022/05/11 00:03:41;;;;;;;10.18;5.10;;;;;;;14.10;47.88;98721.72;1750757;82;25609;-62
2022/05/11 00:06:08;;;;;;;6.85;4.78;;;;;;;14.08;48.05;98712.19;1750672;82;25501;-63
2022/05/11 00:08:34;;;;;;;10.43;5.25;;;;;;;14.06;48.40;98712.52;1750651;81;25437;-62
2022/05/11 00:11:02;;;;;;;10.43;5.40;;;;;;;14.05;48.20;98714.46;1750751;81;27402;-62
2022/05/11 00:13:29;;;;;;;9.28;4.67;;;;;;;14.03;48.36;98722.28;1750615;81;25684;-59
2022/05/11 00:15:56;;;;;;;9.65;5.33;;;;;;;13.84;49.18;98710.91;1750963;82;25545;-63
2022/05/11 00:18:22;;;;;;;10.98;5.75;;;;;;;13.84;49.18;98710.91;1750673;82;25586;-63
2022/05/11 00:20:49;;;;;;;9.00;5.87;;;;;;;13.83;50.36;98729.38;1751185;81;25658;-59
2022/05/11 00:23:15;;;;;;;10.38;5.42;;;;;;;13.79;49.90;98724.30;1750754;82;27757;-60
2022/05/11 00:25:43;;;;;;;10.45;5.60;;;;;;;13.72;49.65;98723.44;1751125;81;25571;-58
2022/05/11 00:28:09;;;;;;;15.75;5.87;;;;;;;13.67;49.94;98720.87;1751180;82;25720;-60
2022/05/11 00:30:35;;;;;;;9.50;5.28;;;;;;;13.64;49.82;98713.27;1750905;82;25570;-55
2022/05/11 00:33:02;;;;;;;9.58;5.70;;;;;;;13.61;50.05;98718.06;1751427;82;25654;-57
2022/05/11 00:35:33;;;;;;;9.38;5.33;;;;;;;13.59;50.10;98715.67;1751053;82;27429;-56
2022/05/11 00:38:00;;;;;;;9.68;5.22;;;;;;;13.59;50.29;98718.99;1751080;82;25590;-63
2022/05/11 00:40:27;;;;;;;9.63;5.45;;;;;;;13.54;50.59;98707.59;1751115;82;25431;-63
2022/05/11 00:42:53;;;;;;;8.88;4.33;;;;;;;13.53;50.68;98710.91;1751157;81;25587;-63
2022/05/11 00:45:20;;;;;;;10.38;4.05;;;;;;;13.52;50.68;98707.11;1751146;81;25701;-63
2022/05/11 00:47:56;;;;;;;7.47;4.87;;;;;;;13.53;50.73;98704.61;1750959;82;28414;-63
2022/05/11 00:50:27;;;;;;;8.90;4.35;;;;;;;13.54;51.18;98706.22;1750908;81;25603;-63
2022/05/11 00:53:00;;;;;;;7.08;4.28;;;;;;;13.54;50.52;98701.53;1751119;81;25457;-58
2022/05/11 00:55:36;;;;;;;5.15;3.62;;;;;;;13.55;50.54;98700.94;1750920;82;25539;-60
2022/05/11 00:58:13;;;;;;;6.25;3.70;;;;;;;13.55;50.90;98700.94;1751711;81;25440;-57
2022/05/11 01:00:40;;;;;;;6.55;4.05;;;;;;;13.52;51.18;98694.16;1751115;82;27365;-58
2022/05/11 01:03:26;;;;;;;8.35;3.98;;;;;;;13.51;50.92;98700.00;1731770;82;25704;-61
2022/05/11 01:05:53;;;;;;;8.43;4.50;;;;;;;13.48;51.05;98700.08;1751190;81;25714;-58
2022/05/11 01:08:22;;;;;;;5.53;3.42;;;;;;;13.46;51.26;98700.97;1750847;82;26206;-57
2022/05/11 01:10:49;;;;;;;7.40;3.65;;;;;;;13.43;51.61;98694.19;1751144;81;25294;-59
2022/05/11 01:13:17;;;;;;;6.08;3.60;;;;;;;13.40;51.64;98688.53;1745259;81;28251;-59
2022/05/11 01:15:48;;;;;;;11.57;5.80;;;;;;;13.39;51.73;98680.83;1743014;81;25711;-58
2022/05/11 01:18:14;;;;;;;6.42;4.10;;;;;;;13.38;51.58;98686.11;1743276;81;30318;-56
2022/05/11 01:20:41;;;;;;;6.17;3.55;;;;;;;13.37;51.81;98686.44;1742713;81;26537;-62
2022/05/11 01:23:24;;;;;;;8.18;4.70;;;;;;;13.37;52.16;98684.50;1742850;81;25658;-64
2022/05/11 01:25:50;;;;;;;7.92;3.62;;;;;;;13.35;51.77;98681.27;1742914;81;27380;-64
2022/05/11 01:28:18;;;;;;;9.45;5.45;;;;;;;13.35;52.49;98683.20;1743001;81;25628;-64
2022/05/11 01:30:50;;;;;;;8.60;4.65;;;;;;;13.32;52.37;98683.89;1743015;81;25594;-63
2022/05/11 01:33:21;;;;;;;10.45;3.70;;;;;;;13.29;51.94;98685.34;1743028;81;26269;-63
2022/05/11 01:36:12;;;;;;;8.65;4.22;;;;;;;13.30;52.36;98684.22;1742946;81;25606;-63
2022/05/11 01:38:46;;;;;;;9.23;4.20;;;;;;;13.30;51.89;98681.47;1742689;81;28607;-63
2022/05/11 01:41:22;;;;;;;6.65;3.80;;;;;;;13.29;52.11;98681.21;1742931;81;25863;-63
2022/05/11 01:43:49;;;;;;;5.37;3.85;;;;;;;13.26;52.91;98681.87;1742726;81;25687;-63
2022/05/11 01:46:16;;;;;;;6.85;4.00;;;;;;;13.22;52.75;98685.88;1742927;81;26174;-64
2022/05/11 01:48:43;;;;;;;6.75;3.83;;;;;;;13.18;53.34;98680.77;1742782;82;25560;-63
2022/05/11 01:51:13;;;;;;;7.35;4.08;;;;;;;13.17;52.57;98684.11;1742707;81;27409;-63
2022/05/11 01:53:40;;;;;;;7.22;4.03;;;;;;;13.16;52.50;98681.11;1742913;81;25803;-61
2022/05/11 01:56:07;;;;;;;5.95;4.47;;;;;;;13.15;52.70;98681.44;1743008;82;25652;-58
2022/05/11 01:58:33;;;;;;;7.42;3.87;;;;;;;13.13;52.65;98681.77;1743137;81;25470;-59
2022/05/11 02:01:00;;;;;;;4.58;3.52;;;;;;;13.10;52.87;98677.51;1743039;82;25599;-59
2022/05/11 02:03:26;;;;;;;7.72;4.62;;;;;;;13.07;52.93;98676.80;1743249;82;28233;-63
2022/05/11 02:08:43;;;;;;;7.42;3.75;;;;;;;13.04;53.13;98668.64;1742783;82;25683;-63
2022/05/11 02:11:11;;;;;;;5.97;3.20;;;;;;;13.04;53.22;98668.05;1742760;82;26281;-63
2022/05/11 02:13:37;;;;;;;6.97;3.55;;;;;;;13.05;53.51;98667.50;1748443;81;25586;-64
2022/05/11 02:16:04;;;;;;;7.70;3.27;;;;;;;13.05;53.03;98669.69;1750922;82;28217;-64
2022/05/11 02:18:31;;;;;;;6.95;3.87;;;;;;;13.06;52.95;98667.72;1750840;82;26103;-63
2022/05/11 02:20:57;;;;;;;4.85;3.33;;;;;;;13.07;53.07;98661.08;1750760;82;25626;-63
2022/05/11 02:23:25;;;;;;;5.10;3.58;;;;;;;13.08;53.34;98659.95;1750995;81;25615;-63
2022/05/11 02:25:52;;;;;;;6.08;4.03;;;;;;;13.09;53.37;98663.50;1751155;82;25608;-63
2022/05/11 02:28:22;;;;;;;5.10;3.60;;;;;;;13.09;53.26;98657.44;1750930;82;27430;-62
2022/05/11 02:30:51;;;;;;;6.00;3.92;;;;;;;13.10;53.33;98659.03;1750508;82;25598;-61
2022/05/11 02:33:17;;;;;;;8.40;4.35;;;;;;;13.12;53.30;98652.65;1750681;82;25441;-55
2022/05/11 02:35:44;;;;;;;8.38;4.20;;;;;;;13.14;53.38;98658.64;1751239;81;25638;-57
2022/05/11 02:38:16;;;;;;;4.42;3.45;;;;;;;13.17;53.23;98660.73;1751101;82;25592;-57
2022/05/11 02:40:43;;;;;;;7.08;4.08;;;;;;;13.18;53.50;98654.08;1751178;82;27451;-62
2022/05/11 02:43:11;;;;;;;5.97;3.75;;;;;;;13.21;53.33;98664.98;1750831;82;25412;-57
2022/05/11 02:45:42;;;;;;;10.08;4.17;;;;;;;13.25;53.35;98655.50;1751106;82;25753;-63
2022/05/11 02:48:15;;;;;;;6.90;3.20;;;;;;;13.26;53.63;98651.60;1750988;82;25891;-63
2022/05/11 02:50:46;;;;;;;5.08;3.20;;;;;;;13.30;53.58;98648.45;1751103;82;25631;-63
2022/05/11 02:53:14;;;;;;;7.62;3.92;;;;;;;13.30;53.62;98643.73;1751186;82;28214;-63
2022/05/11 02:55:45;;;;;;;6.20;3.55;;;;;;;13.32;53.65;98644.77;1750994;82;25926;-63
2022/05/11 02:58:14;;;;;;;7.37;3.30;;;;;;;13.34;53.60;98643.88;1751084;82;25618;-63
2022/05/11 03:00:44;;;;;;;4.80;3.50;;;;;;;13.35;53.58;98645.48;1751133;82;25634;-63
2022/05/11 03:03:12;;;;;;;7.85;3.85;;;;;;;13.37;53.47;98642.40;1751077;82;25707;-55
2022/05/11 03:05:40;;;;;;;5.85;3.60;;;;;;;13.38;53.75;98645.37;1751281;81;27595;-63
2022/05/11 03:08:07;;;;;;;5.80;3.20;;;;;;;13.39;53.76;98644.27;1750677;82;25702;-63
2022/05/11 03:10:35;;;;;;;5.42;3.52;;;;;;;13.38;53.75;98640.69;1750800;81;25586;-63
2022/05/11 03:13:02;;;;;;;4.08;2.87;;;;;;;13.40;53.62;98637.05;1748485;81;25460;-63
2022/05/11 03:15:30;;;;;;;6.58;3.25;;;;;;;13.42;53.78;98644.38;1743019;82;25448;-61
2022/05/11 03:17:56;;;;;;;5.58;3.80;;;;;;;13.41;53.79;98637.27;1743293;81;27370;-61
2022/05/11 03:20:23;;;;;;;5.62;3.30;;;;;;;13.43;53.61;98646.58;1743115;81;25766;-58
2022/05/11 03:22:50;;;;;;;4.15;2.98;;;;;;;13.41;53.86;98643.34;1742850;81;25497;-60
2022/05/11 03:25:17;;;;;;;4.25;3.33;;;;;;;13.41;54.17;98641.41;1742966;82;25445;-56
2022/05/11 03:27:43;;;;;;;7.22;3.10;;;;;;;13.41;54.06;98632.33;1743306;81;25566;-64
2022/05/11 03:30:11;;;;;;;5.15;2.92;;;;;;;13.42;54.33;98635.34;1743165;81;27578;-63
2022/05/11 03:35:21;;;;;;;9.13;4.55;;;;;;;13.46;54.28;98636.27;1742803;82;25410;-63
2022/05/11 03:37:47;;;;;;;6.20;3.67;;;;;;;13.50;54.41;98630.95;1743341;82;25679;-64
2022/05/11 03:40:14;;;;;;;11.78;6.15;;;;;;;13.52;54.46;98630.03;1743153;82;25588;-61
2022/05/11 03:42:42;;;;;;;7.28;3.95;;;;;;;13.57;54.33;98627.65;1743271;82;27373;-62
2022/05/11 03:45:13;;;;;;;11.43;5.37;;;;;;;13.61;54.32;98638.22;1743091;81;25401;-62
2022/05/11 03:47:40;;;;;;;10.48;5.22;;;;;;;13.63;54.16;98633.20;1743144;81;25491;-63
2022/05/11 03:50:08;;;;;;;5.37;3.55;;;;;;;13.65;54.40;98635.84;1742994;82;25477;-60
2022/05/11 03:52:35;;;;;;;5.90;4.00;;;;;;;13.70;54.44;98634.05;1743025;81;25591;-61
2022/05/11 03:55:04;;;;;;;5.35;3.30;;;;;;;13.71;54.45;98632.34;1743255;82;27312;-61
2022/05/11 03:57:29;;;;;;;8.03;4.28;;;;;;;13.74;54.55;98636.36;1742978;82;25662;-59
2022/05/11 03:59:55;;;;;;;7.30;3.83;;;;;;;13.77;54.57;98641.20;1743205;81;25634;-55
2022/05/11 04:02:21;;;;;;;9.23;4.42;;;;;;;13.80;54.33;98637.21;1743148;82;26161;-61
2022/05/11 04:04:47;;;;;;;7.35;4.42;;;;;;;13.84;54.20;98638.70;1743389;81;25611;-60
2022/05/11 04:07:13;;;;;;;8.30;4.33;;;;;;;13.88;54.21;98636.09;1743085;82;28174;-60
2022/05/11 04:09:40;;;;;;;6.47;4.00;;;;;;;13.92;54.19;98635.09;1742971;81;25900;-59
2022/05/11 04:12:08;;;;;;;5.05;3.42;;;;;;;13.98;54.28;98639.00;1743274;81;25479;-61
2022/05/11 04:14:33;;;;;;;8.10;3.42;;;;;;;14.03;54.26;98634.11;1742786;81;25717;-60
2022/05/11 04:16:59;;;;;;;7.55;3.70;;;;;;;14.09;54.17;98638.02;1743259;82;25669;-61
2022/05/11 04:19:27;;;;;;;7.05;3.58;;;;;;;14.15;54.38;98631.16;1742752;82;27375;-60
2022/05/11 04:21:54;;;;;;;6.47;3.62;;;;;;;14.15;54.38;98631.16;1742244;81;25694;-60
2022/05/11 04:24:20;;;;;;;6.08;3.87;;;;;;;14.19;54.20;98637.59;1742978;81;25756;-60
2022/05/11 04:26:46;;;;;;;7.42;3.95;;;;;;;14.22;54.07;98641.05;1743087;82;25789;-59
2022/05/11 04:29:12;;;;;;;7.95;3.87;;;;;;;14.26;54.67;98642.00;1743143;81;25674;-60
2022/05/11 04:31:38;;;;;;;5.75;4.12;;;;;;;14.29;54.24;98642.70;1742715;82;27473;-61
2022/05/11 04:34:04;;;;;;;6.62;3.87;;;;;;;14.33;54.18;98644.19;1743046;81;25643;-60
2022/05/11 04:36:30;;;;;;;6.75;3.70;;;;;;;14.37;54.72;98641.57;1743080;81;25763;-62
2022/05/11 04:38:57;;;;;;;8.35;4.08;;;;;;;14.35;54.43;98641.91;1742783;81;25777;-61
2022/05/11 04:41:25;;;;;;;5.78;3.47;;;;;;;14.42;54.01;98644.91;1742761;81;25702;-61
2022/05/11 04:43:52;;;;;;;6.60;3.77;;;;;;;14.52;54.39;98644.25;1742936;81;27355;-60
2022/05/11 04:46:18;;;;;;;7.00;3.72;;;;;;;14.61;53.84;98642.22;1742953;82;25679;-61
2022/05/11 04:48:44;;;;;;;7.80;3.47;;;;;;;14.67;53.84;98644.98;1743121;82;25624;-57
2022/05/11 04:51:11;;;;;;;5.85;3.87;;;;;;;14.71;53.67;98638.78;1742919;81;26022;-60
2022/05/11 04:53:38;;;;;;;4.75;3.33;;;;;;;14.84;53.58;98643.20;1743240;81;25577;-62
2022/05/11 04:56:05;;;;;;;6.75;3.77;;;;;;;14.84;53.58;98643.20;1742702;81;27413;-61
2022/05/11 04:58:33;;;;;;;7.25;3.80;;;;;;;14.89;53.87;98631.95;1742643;81;25642;-61
2022/05/11 05:00:59;;;;;;;6.42;3.60;;;;;;;15.09;53.22;98642.41;1742951;81;25551;-61
2022/05/11 05:03:26;;;;;;;8.25;3.75;;;;;;;15.21;52.91;98645.74;1743101;82;25739;-61
2022/05/11 05:05:52;;;;;;;6.22;4.10;;;;;;;15.32;53.04;98644.70;1742933;81;25560;-62
2022/05/11 05:08:19;;;;;;;5.92;3.47;;;;;;;15.46;52.76;98642.97;1743188;82;27372;-62
2022/05/11 05:10:46;;;;;;;5.92;3.75;;;;;;;15.58;52.57;98633.86;1743079;81;25509;-61
2022/05/11 05:13:13;;;;;;;7.67;3.40;;;;;;;15.66;52.14;98639.25;1742841;81;25598;-62
2022/05/11 05:15:42;;;;;;;5.67;3.15;;;;;;;15.77;51.88;98639.57;1742818;81;26188;-61
2022/05/11 05:18:09;;;;;;;5.30;3.42;;;;;;;15.90;51.88;98638.97;1742679;82;25698;-62
2022/05/11 05:20:37;;;;;;;5.10;3.77;;;;;;;16.01;52.17;98633.76;1743257;81;28290;-58
2022/05/11 05:23:04;;;;;;;7.47;4.53;;;;;;;16.10;51.67;98631.44;1742632;81;25588;-61
2022/05/11 05:25:31;;;;;;;8.38;3.90;;;;;;;16.16;51.63;98636.37;1743050;82;25627;-60
2022/05/11 05:31:04;;;;;;;5.95;3.40;;;;;;;16.29;52.61;98633.53;1742988;81;26227;-62
2022/05/11 05:33:11;;;;;;;5.87;2.92;;;;;;;16.62;51.91;98634.40;1742720;82;25618;-61
2022/05/11 05:35:37;;;;;;;6.33;4.12;;;;;;;16.72;51.12;98635.25;1742788;81;25687;-60
2022/05/11 05:38:04;;;;;;;8.95;3.47;;;;;;;16.83;51.78;98638.87;1743258;81;25457;-61
2022/05/11 05:40:31;;;;;;;5.87;3.50;;;;;;;16.95;51.03;98634.63;1742939;82;25704;-62
2022/05/11 05:42:57;;;;;;;6.70;2.47;;;;;;;17.08;51.15;98642.88;1743011;81;25594;-61
2022/05/11 05:45:25;;;;;;;8.53;3.52;;;;;;;17.15;49.40;98643.86;1742556;82;27457;-61
2022/05/11 05:47:51;;;;;;;5.00;3.72;;;;;;;17.27;50.82;98643.55;1742595;81;25484;-62
2022/05/11 05:50:17;;;;;;;5.35;3.22;;;;;;;17.40;49.56;98649.77;1742637;81;25472;-59
2022/05/11 05:52:47;;;;;;;6.67;3.70;;;;;;;17.45;49.16;98648.12;1743019;82;25782;-62
2022/05/11 05:55:14;;;;;;;8.83;3.77;;;;;;;17.55;49.29;98646.16;1742636;81;25424;-61
2022/05/11 05:57:41;;;;;;;5.90;3.50;;;;;;;17.69;49.13;98639.33;1742798;81;28704;-62
2022/05/11 06:00:09;;;;;;;5.62;3.45;;;;;;;17.85;49.89;98641.25;1742800;81;25681;-62
2022/05/11 06:02:35;;;;;;;8.75;3.27;;;;;;;17.93;48.77;98641.03;1742968;81;25606;-62
2022/05/11 06:05:03;;;;;;;5.22;2.92;;;;;;;17.97;48.63;98641.69;1743084;82;26337;-58
2022/05/11 06:07:30;;;;;;;9.23;3.80;;;;;;;18.01;48.50;98650.30;1742829;81;25463;-61
2022/05/11 06:09:57;;;;;;;10.00;3.67;;;;;;;18.22;49.44;98647.77;1742854;81;27563;-60
2022/05/11 06:12:23;;;;;;;4.60;2.85;;;;;;;18.48;48.89;98649.66;1742744;81;25574;-57
2022/05/11 06:14:51;;;;;;;10.45;4.10;;;;;;;18.76;47.77;98652.71;1742647;81;25669;-56
2022/05/11 06:17:23;;;;;;;5.67;3.80;;;;;;;18.92;48.44;98648.44;1742681;81;25972;-58
2022/05/11 06:19:53;;;;;;;8.85;3.70;;;;;;;19.05;47.39;98644.30;1742663;81;25646;-62
2022/05/11 06:22:21;;;;;;;8.60;4.05;;;;;;;19.26;47.71;98650.00;1742812;81;27381;-61
2022/05/11 06:24:48;;;;;;;9.43;3.80;;;;;;;19.49;47.89;98651.92;1742949;81;25666;-62
2022/05/11 06:27:18;;;;;;;8.70;4.47;;;;;;;19.74;47.13;98648.70;1742740;82;25665;-62
2022/05/11 06:29:57;;;;;;;8.48;3.83;;;;;;;19.91;47.28;98651.52;1742783;82;25838;-62
2022/05/11 06:32:23;;;;;;;7.17;3.80;;;;;;;20.15;48.04;98648.05;1743077;82;25641;-61
2022/05/11 06:34:52;;;;;;;6.22;3.67;;;;;;;20.32;44.85;98650.03;1743114;81;27461;-61
2022/05/11 06:37:21;;;;;;;6.35;3.85;;;;;;;20.40;45.67;98651.72;1742706;81;25459;-61
2022/05/11 06:39:49;;;;;;;11.73;4.67;;;;;;;20.53;45.53;98659.81;1742953;81;25689;-57
2022/05/11 06:42:16;;;;;;;7.87;4.50;;;;;;;20.49;45.68;98654.80;1742918;81;26349;-58
2022/05/11 06:44:43;;;;;;;9.03;4.10;;;;;;;20.44;45.52;98660.13;1742651;81;25431;-58
2022/05/11 06:47:10;;;;;;;11.53;4.35;;;;;;;20.42;44.90;98656.33;1743136;81;27643;-61
2022/05/11 06:49:37;;;;;;;11.80;4.83;;;;;;;20.34;45.22;98651.85;1742643;81;25421;-58
2022/05/11 06:52:04;;;;;;;12.53;6.72;;;;;;;20.25;46.34;98652.16;1743007;81;25646;-57
2022/05/11 07:00:00;;;;;;;16.40;5.92;;;;;;;20.61;46.31;98648.94;1742670;82;25655;-57
2022/05/11 07:02:27;;;;;;;12.13;6.37;;;;;;;20.73;45.41;98645.69;1742551;81;27208;-56
2022/05/11 07:04:53;;;;;;;11.75;4.90;;;;;;;20.89;45.50;98654.59;1742597;82;25709;-57
2022/05/11 07:07:20;;;;;;;12.47;6.47;;;;;;;21.18;45.82;98650.68;1743095;82;25790;-58
2022/05/11 07:09:47;;;;;;;8.55;4.67;;;;;;;21.50;46.20;98644.34;1742621;81;25701;-57
2022/05/11 07:12:25;;;;;;;12.58;5.05;;;;;;;21.73;44.74;98645.45;1742762;81;27619;-57
2022/05/11 07:14:54;;;;;;;15.43;5.00;;;;;;;21.82;43.53;98642.36;1742335;81;25412;-57
2022/05/11 07:17:32;;;;;;;8.25;5.50;;;;;;;21.98;43.16;98639.23;1743166;81;25444;-58
2022/05/11 07:20:05;;;;;;;14.75;5.05;;;;;;;22.11;43.69;98630.52;1743109;82;25735;-60
2022/05/11 07:22:32;;;;;;;8.90;4.90;;;;;;;22.50;41.93;98635.41;1742611;81;25611;-61
2022/05/11 07:24:59;;;;;;;8.10;4.15;;;;;;;22.72;42.00;98636.87;1742806;81;27862;-58
2022/05/11 07:27:26;;;;;;;11.63;5.47;;;;;;;22.87;41.25;98638.27;1743078;81;25650;-62
2022/05/11 07:29:55;;;;;;;9.05;4.65;;;;;;;23.00;42.00;98631.70;1743161;82;25663;-61
2022/05/11 07:32:23;;;;;;;6.62;4.08;;;;;;;23.13;40.62;98631.48;1743133;81;25859;-62
2022/05/11 07:34:51;;;;;;;10.20;4.53;;;;;;;23.08;41.70;98631.88;1742781;81;25688;-62
2022/05/11 07:37:18;;;;;;;11.57;4.00;;;;;;;23.25;40.37;98628.07;1743079;81;27435;-62
2022/05/11 07:39:44;;;;;;;8.93;4.20;;;;;;;23.52;40.12;98621.46;1742869;82;25413;-62
2022/05/11 07:42:12;;;;;;;11.15;3.72;;;;;;;23.77;40.12;98622.59;1743344;81;25634;-61
2022/05/11 07:44:39;;;;;;;6.50;3.35;;;;;;;23.99;39.12;98623.92;1742940;82;25785;-58
2022/05/11 07:47:07;;;;;;;8.00;3.50;;;;;;;24.18;38.59;98610.08;1743144;82;25469;-62
2022/05/11 07:49:33;;;;;;;13.90;4.03;;;;;;;24.49;40.93;98618.68;1743061;81;27908;-62
2022/05/11 07:51:59;;;;;;;6.22;3.08;;;;;;;24.75;38.64;98606.70;1742831;81;25607;-62
2022/05/11 07:54:26;;;;;;;4.72;3.10;;;;;;;24.97;39.07;98605.75;1743024;82;25740;-62
2022/05/11 07:59:56;;;;;;;8.53;3.30;;;;;;;25.52;37.66;98604.63;1742831;82;25627;-63
2022/05/11 08:02:26;;;;;;;4.08;2.72;;;;;;;25.91;38.49;98606.20;1742641;82;26702;-62
2022/05/11 08:04:51;;;;;;;13.05;3.22;;;;;;;26.38;37.90;98599.20;1742445;81;25845;-63
2022/05/11 08:07:18;;;;;;;9.58;3.20;;;;;;;26.79;37.80;98602.98;1743085;81;25464;-62
2022/05/11 08:09:44;;;;;;;9.18;2.95;;;;;;;26.99;34.96;98600.08;1742993;81;25656;-59
2022/05/11 08:12:11;;;;;;;8.73;3.10;;;;;;;27.11;33.44;98599.47;1742850;81;25418;-62
2022/05/11 08:14:38;;;;;;;5.90;3.02;;;;;;;27.28;36.04;98598.97;1745021;81;27543;-62
2022/05/11 08:17:05;;;;;;;9.15;4.37;;;;;;;27.55;35.09;98601.50;1750845;81;25400;-58
2022/05/11 08:19:32;;;;;;;4.85;2.65;;;;;;;27.68;33.61;98605.28;1750832;81;25461;-57
2022/05/11 08:21:59;;;;;;;9.60;3.10;;;;;;;27.76;33.38;98603.12;1751005;81;25886;-57
2022/05/11 08:24:27;;;;;;;6.37;2.72;;;;;;;28.02;34.41;98589.31;1750694;82;25735;-58
2022/05/11 08:26:54;;;;;;;4.72;2.37;;;;;;;28.36;33.16;98600.08;1750569;82;27573;-59
2022/05/11 08:34:52;;;;;;;5.40;2.70;;;;;;;28.86;33.69;98604.33;1750543;82;25757;-61
2022/05/11 08:37:20;;;;;;;6.03;3.05;;;;;;;29.20;32.26;98604.31;1751015;81;25552;-63
2022/05/11 08:39:48;;;;;;;5.80;2.90;;;;;;;29.33;33.20;98603.79;1751037;81;27377;-64
2022/05/11 08:42:16;;;;;;;4.62;2.90;;;;;;;29.51;32.54;98608.14;1750538;81;25646;-58
2022/05/11 08:44:49;;;;;;;3.62;2.83;;;;;;;29.89;31.78;98612.34;1750756;82;25631;-59
2022/05/11 08:47:27;;;;;;;6.12;2.95;;;;;;;30.10;30.17;98605.27;1751050;82;25776;-60
2022/05/11 08:50:16;;;;;;;6.50;2.85;;;;;;;30.20;31.30;98611.08;1750887;82;25468;-63
2022/05/11 08:52:52;;;;;;;3.52;2.92;;;;;;;30.43;30.62;98602.27;1747780;81;27466;-63
2022/05/11 08:55:45;;;;;;;3.65;2.70;;;;;;;30.63;30.12;98604.09;1750842;82;25443;-62
2022/05/11 08:58:17;;;;;;;6.87;3.25;;;;;;;30.77;30.40;98601.42;1751144;81;25601;-62
2022/05/11 09:00:45;;;;;;;4.80;2.90;;;;;;;30.96;30.47;98593.75;1741547;80;25730;-63
2022/05/11 09:03:36;;;;;;;8.20;2.83;;;;;;;31.26;30.00;98592.95;1734475;80;25738;-58
2022/05/11 09:06:08;;;;;;;4.45;2.65;;;;;;;31.53;29.68;98593.83;1733325;81;28075;-60
2022/05/11 09:08:38;;;;;;;5.30;2.90;;;;;;;31.69;27.74;98589.23;1720268;80;25721;-59
2022/05/11 09:11:07;;;;;;;3.15;2.60;;;;;;;31.60;28.85;98596.23;1747524;82;25661;-59
2022/05/11 09:13:38;;;;;;;3.10;2.25;;;;;;;31.53;29.14;98585.34;1747320;82;25784;-63
2022/05/11 09:16:06;;;;;;;7.20;2.58;;;;;;;31.60;27.36;98588.52;1754438;80;25804;-62
2022/05/11 09:18:39;;;;;;;7.95;2.90;;;;;;;31.64;27.98;98589.81;1777212;80;26905;-62
2022/05/11 09:21:33;;;;;;;5.97;2.80;;;;;;;31.50;29.58;98589.09;1776947;80;25222;-60
2022/05/11 09:24:10;;;;;;;4.65;2.75;;;;;;;31.60;28.68;98590.58;1777199;80;26476;-61
2022/05/11 09:26:44;;;;;;;9.05;2.72;;;;;;;31.59;29.51;98591.19;1761370;80;25908;-63
2022/05/11 09:29:24;;;;;;;6.33;2.70;;;;;;;31.91;29.00;98596.28;1734316;81;25754;-64
2022/05/11 09:31:53;;;;;;;5.25;2.77;;;;;;;32.20;29.20;98594.41;1683728;83;27394;-63
2022/05/11 09:34:30;;;;;;;11.65;2.87;;;;;;;32.55;27.62;98597.11;1711881;82;26485;-63
2022/05/11 09:37:01;;;;;;;7.20;2.80;;;;;;;32.47;28.20;98595.00;1741157;82;25725;-61
2022/05/11 09:39:29;;;;;;;4.75;2.62;;;;;;;32.54;28.32;98598.37;1747089;82;26419;-62
2022/05/11 09:42:02;;;;;;;6.83;2.77;;;;;;;32.64;28.32;98594.92;1748360;82;25453;-64
2022/05/11 09:44:42;;;;;;;5.95;2.95;;;;;;;32.80;28.17;98591.03;1744584;82;27361;-63
2022/05/11 09:47:31;;;;;;;4.03;2.72;;;;;;;32.95;26.39;98589.00;1747156;82;25907;-63
2022/05/11 09:50:20;;;;;;;6.30;2.80;;;;;;;33.16;27.00;98587.97;1746879;82;25696;-59
2022/05/11 09:52:48;;;;;;;5.65;2.72;;;;;;;33.50;27.51;98584.64;1747084;82;25737;-56
2022/05/11 09:55:28;;;;;;;4.03;2.83;;;;;;;33.91;26.85;98574.49;1748355;82;25614;-63
2022/05/11 09:58:03;;;;;;;4.28;2.67;;;;;;;34.09;27.26;98577.14;1748060;82;27412;-64
2022/05/11 10:00:39;;;;;;;4.05;2.98;;;;;;;34.16;25.25;98567.49;1748414;82;25587;-65
2022/05/11 10:03:18;;;;;;;6.75;2.50;;;;;;;34.20;25.25;98570.97;1748107;82;37300;-65
2022/05/11 10:05:48;;;;;;;3.55;2.50;;;;;;;34.13;25.22;98565.61;1747169;82;26562;-63
2022/05/11 10:08:38;;;;;;;5.30;2.70;;;;;;;34.24;25.00;98560.83;1748375;82;25658;-65
2022/05/11 10:11:22;;;;;;;5.00;2.65;;;;;;;34.25;24.39;98569.53;1748315;82;27424;-64
2022/05/11 10:21:50;;;;;;;3.95;2.40;;;;;;;33.70;24.69;98564.91;1748192;82;25607;-63
2022/05/11 10:22:41;;;;;;;4.12;2.62;;;;;;;33.45;25.95;98569.67;1723079;82;25521;-65
2022/05/11 10:25:33;;;;;;;6.60;2.80;;;;;;;33.27;26.75;98576.15;1748157;82;27587;-63
2022/05/11 10:28:32;;;;;;;3.92;2.67;;;;;;;33.47;27.15;98567.77;1732406;82;25565;-63
2022/05/11 10:31:15;;;;;;;3.35;2.30;;;;;;;33.50;26.05;98569.66;1732843;82;25690;-64
2022/05/11 10:34:03;;;;;;;4.85;3.00;;;;;;;33.57;26.51;98568.53;1732835;82;25734;-58
2022/05/11 10:37:12;;;;;;;4.12;2.70;;;;;;;33.83;26.40;98564.73;1732195;82;25496;-59
2022/05/11 10:39:55;;;;;;;3.52;2.60;;;;;;;34.45;25.92;98572.45;1732181;82;25932;-65
2022/05/11 10:43:00;;;;;;;3.12;2.27;;;;;;;34.49;25.57;98568.78;1732107;82;25713;-65
2022/05/11 10:45:32;;;;;;;3.02;2.45;;;;;;;34.71;24.92;98553.52;1733139;82;25669;-65
2022/05/11 10:48:36;;;;;;;4.58;2.67;;;;;;;35.03;24.58;98551.86;1732199;82;26478;-64
2022/05/11 10:51:13;;;;;;;4.65;2.72;;;;;;;35.13;23.85;98554.63;1731997;82;25684;-63
2022/05/11 10:53:52;;;;;;;2.55;2.30;;;;;;;35.08;23.92;98546.78;1732086;82;27473;-64
2022/05/11 10:56:44;;;;;;;6.00;2.70;;;;;;;35.11;22.84;98550.08;1716267;82;25549;-65
2022/05/11 10:59:44;;;;;;;10.78;2.40;;;;;;;35.18;23.34;98553.97;1732605;82;25570;-65
2022/05/11 11:02:39;;;;;;;5.08;2.50;;;;;;;35.25;23.64;98542.85;1733081;82;25688;-63
2022/05/11 11:05:10;;;;;;;2.58;2.37;;;;;;;35.64;22.70;98541.39;1744077;82;25705;-59
2022/05/11 11:08:16;;;;;;;6.60;2.50;;;;;;;35.60;22.96;98537.16;1742720;82;27378;-63
2022/05/11 11:11:11;;;;;;;6.20;2.62;;;;;;;35.40;22.47;98544.32;1742720;81;25671;-65
2022/05/11 11:13:59;;;;;;;7.03;2.72;;;;;;;35.43;23.11;98534.00;1681526;85;25509;-63
2022/05/11 11:16:36;;;;;;;3.77;2.60;;;;;;;35.71;23.58;98533.76;1682263;83;25688;-62
2022/05/11 11:19:04;;;;;;;;;;;;;;;35.85;20.77;98524.41;1681374;85;25700;-59
2022/05/11 11:21:32;;;;;;;5.20;2.83;;;;;;;35.86;22.50;98533.09;1679180;85;27889;-59
2022/05/11 11:24:25;;;;;;;3.10;2.52;;;;;;;35.78;21.37;98525.58;1679043;85;25701;-63
2022/05/11 11:27:06;;;;;;;5.53;2.80;;;;;;;35.22;21.39;98523.89;1678965;84;25707;-62
2022/05/11 11:29:53;;;;;;;5.55;2.62;;;;;;;34.74;22.29;98526.29;1679047;85;25898;-63
2022/05/11 11:32:20;;;;;;;2.37;2.17;;;;;;;34.53;22.75;98523.87;1679005;85;25683;-58
2022/05/11 11:34:51;;;;;;;6.60;2.15;;;;;;;34.36;21.81;98527.12;1679066;85;27310;-58
2022/05/11 11:37:43;;;;;;;5.00;2.20;;;;;;;34.15;22.49;98528.34;1678774;85;25837;-58
2022/05/11 11:40:22;;;;;;;5.62;2.35;;;;;;;34.10;22.96;98526.77;1678869;85;25664;-57
2022/05/11 11:42:49;;;;;;;5.55;2.50;;;;;;;33.81;23.55;98529.55;1679458;85;26586;-57
2022/05/11 11:45:42;;;;;;;3.65;2.60;;;;;;;33.53;24.48;98524.69;1678777;85;25542;-57
2022/05/11 11:48:26;;;;;;;3.75;2.47;;;;;;;33.28;24.67;98523.15;1679163;85;27478;-60
2022/05/11 11:51:02;;;;;;;4.50;2.47;;;;;;;33.24;22.90;98524.56;1704997;83;25768;-63
2022/05/11 11:53:43;;;;;;;4.72;2.55;;;;;;;32.90;25.05;98518.05;1718529;83;25600;-60
2022/05/11 11:56:30;;;;;;;2.90;2.40;;;;;;;32.63;23.84;98521.02;1717790;83;25856;-64
2022/05/11 11:59:09;;;;;;;2.55;2.35;;;;;;;32.56;26.39;98515.66;1718627;83;25631;-56
2022/05/11 12:01:43;;;;;;;7.35;2.60;;;;;;;32.62;24.69;98518.03;1718477;83;27463;-58
2022/05/11 12:04:27;;;;;;;4.65;2.42;;;;;;;32.38;25.32;98515.73;1717897;83;25465;-57
2022/05/11 12:15:32;;;;;;;4.03;2.22;;;;;;;32.39;25.49;98500.93;1718232;83;25614;-65
2022/05/11 12:18:00;;;;;;;4.40;2.45;;;;;;;32.61;24.40;98503.67;1756149;81;25390;-61
2022/05/11 12:20:42;;;;;;;4.85;3.00;;;;;;;32.95;24.78;98508.77;1756426;81;25591;-65
2022/05/11 12:23:20;;;;;;;4.20;3.00;;;;;;;32.93;24.91;98500.73;1756247;81;26524;-65
2022/05/11 12:26:01;;;;;;;3.22;2.42;;;;;;;32.98;25.10;98497.25;1749579;81;25657;-65
2022/05/11 12:28:32;;;;;;;5.75;3.10;;;;;;;33.24;24.46;98499.78;1756314;81;26866;-65